createdAt,value
2018-12-04T00:02:27.724Z,82.62
2018-12-04T00:04:55.236Z,82.78
2018-12-04T00:07:22.775Z,84.11
2018-12-04T00:09:52.260Z,83.62
2018-12-04T00:12:19.882Z,83.42
2018-12-04T00:14:47.499Z,83.17
2018-12-04T00:17:16.002Z,83.04
2018-12-04T00:19:45.301Z,83.09
2018-12-04T00:22:14.385Z,82.49
2018-12-04T00:27:25.621Z,81.26
2018-12-04T00:29:53.135Z,81.63
2018-12-04T00:32:21.920Z,81.63
2018-12-04T00:34:49.460Z,81.78
2018-12-04T00:37:18.050Z,81.38
2018-12-04T00:39:45.782Z,81.88
2018-12-04T00:42:13.376Z,81.73
2018-12-04T00:44:42.770Z,81.62
2018-12-04T00:47:11.155Z,81.76
2018-12-04T00:49:40.939Z,81.87
2018-12-04T00:52:08.504Z,81.70
2018-12-04T00:54:36.891Z,81.67
2018-12-04T00:57:04.707Z,81.70
2018-12-04T00:59:33.040Z,81.82
2018-12-04T01:02:00.976Z,82.24
2018-12-04T01:04:28.570Z,82.01
2018-12-04T01:06:56.435Z,81.91
2018-12-04T01:09:23.988Z,81.83
2018-12-04T01:11:51.476Z,81.72
2018-12-04T01:14:19.104Z,81.68
2018-12-04T01:16:46.769Z,82.08
2018-12-04T01:19:14.442Z,82.77
2018-12-04T01:21:41.970Z,82.04
2018-12-04T01:24:09.459Z,81.98
2018-12-04T01:26:38.397Z,81.54
2018-12-04T01:29:06.085Z,82.00
2018-12-04T01:31:33.551Z,81.13
2018-12-04T01:34:02.129Z,81.48
2018-12-04T01:36:29.809Z,81.31
2018-12-04T01:38:57.997Z,81.50
2018-12-04T01:41:26.503Z,81.52
2018-12-04T01:43:55.064Z,80.60
2018-12-04T01:46:22.610Z,81.03
2018-12-04T01:48:50.155Z,81.23
2018-12-04T01:51:17.724Z,81.03
2018-12-04T01:53:45.335Z,81.33
2018-12-04T01:56:13.063Z,81.44
2018-12-04T01:58:40.573Z,81.06
2018-12-04T02:01:08.875Z,81.32
2018-12-04T02:03:36.390Z,81.05
2018-12-04T02:06:03.981Z,81.14
2018-12-04T02:08:31.568Z,81.28
2018-12-04T02:10:59.260Z,80.75
2018-12-04T02:13:27.161Z,80.81
2018-12-04T02:15:54.661Z,80.96
2018-12-04T02:18:22.170Z,81.01
2018-12-04T02:20:49.688Z,81.30
2018-12-04T02:23:17.226Z,81.45
2018-12-04T02:25:44.802Z,81.33
2018-12-04T02:28:13.225Z,81.44
2018-12-04T02:30:40.724Z,81.22
2018-12-04T02:33:08.266Z,81.42
2018-12-04T02:35:35.768Z,81.28
2018-12-04T02:38:03.245Z,80.80
2018-12-04T02:40:30.858Z,81.35
2018-12-04T02:42:59.231Z,80.96
2018-12-04T02:45:27.211Z,81.02
2018-12-04T02:47:54.709Z,81.04
2018-12-04T02:50:22.227Z,80.77
2018-12-04T02:52:49.772Z,80.36
2018-12-04T02:55:17.404Z,80.55
2018-12-04T02:57:44.916Z,80.95
2018-12-04T03:00:12.532Z,80.53
2018-12-04T03:02:40.098Z,80.46
2018-12-04T03:05:07.766Z,80.17
2018-12-04T03:07:35.278Z,80.60
2018-12-04T03:10:03.437Z,80.38
2018-12-04T03:12:31.078Z,79.98
2018-12-04T03:14:58.614Z,80.13
2018-12-04T03:17:26.326Z,79.82
2018-12-04T03:19:53.844Z,80.02
2018-12-04T03:22:21.376Z,80.06
2018-12-04T03:24:50.413Z,79.45
2018-12-04T03:27:17.918Z,79.51
2018-12-04T03:29:45.433Z,79.56
2018-12-04T03:32:13.006Z,79.72
2018-12-04T03:34:41.473Z,79.55
2018-12-04T03:37:08.979Z,79.57
2018-12-04T03:39:36.528Z,79.48
2018-12-04T03:42:04.175Z,79.61
2018-12-04T03:44:31.820Z,79.32
2018-12-04T03:47:01.048Z,79.73
2018-12-04T03:49:28.544Z,79.87
2018-12-04T03:51:56.082Z,79.61
2018-12-04T03:54:23.622Z,79.93
2018-12-04T03:56:51.169Z,80.04
2018-12-04T03:59:18.827Z,79.95
2018-12-04T04:01:46.496Z,80.03
2018-12-04T04:04:14.768Z,79.93
2018-12-04T04:06:44.596Z,79.80
2018-12-04T04:09:14.178Z,79.56
2018-12-04T04:11:43.403Z,79.84
2018-12-04T04:14:11.095Z,79.78
2018-12-04T04:16:38.669Z,79.47
2018-12-04T04:19:06.396Z,80.30
2018-12-04T04:21:34.019Z,80.12
2018-12-04T04:24:01.557Z,79.79
2018-12-04T04:26:29.098Z,79.98
2018-12-04T04:28:56.639Z,80.07
2018-12-04T04:31:24.172Z,79.79
2018-12-04T04:33:51.811Z,79.39
2018-12-04T04:36:19.815Z,79.28
2018-12-04T04:38:47.717Z,79.57
2018-12-04T04:41:15.252Z,79.15
2018-12-04T04:43:43.731Z,79.19
2018-12-04T04:46:11.488Z,79.55
2018-12-04T04:48:39.052Z,79.61
2018-12-04T04:51:07.743Z,79.61
2018-12-04T04:53:35.342Z,79.00
2018-12-04T04:56:03.167Z,79.32
2018-12-04T04:58:30.682Z,79.50
2018-12-04T05:00:58.244Z,79.37
2018-12-04T05:03:25.912Z,79.55
2018-12-04T05:05:53.546Z,79.83
2018-12-04T05:08:22.107Z,79.27
2018-12-04T05:10:49.767Z,79.40
2018-12-04T05:13:17.340Z,79.67
2018-12-04T05:15:45.556Z,79.31
2018-12-04T05:18:14.082Z,79.67
2018-12-04T05:20:42.322Z,79.08
2018-12-04T05:23:09.870Z,79.42
2018-12-04T05:25:37.441Z,79.44
2018-12-04T05:28:05.407Z,81.11
2018-12-04T05:30:32.904Z,79.59
2018-12-04T05:33:00.494Z,80.86
2018-12-04T05:35:28.825Z,79.45
2018-12-04T05:37:56.354Z,79.34
2018-12-04T05:40:24.217Z,79.90
2018-12-04T05:42:51.754Z,79.67
2018-12-04T05:45:20.066Z,79.86
2018-12-04T05:47:47.606Z,79.24
2018-12-04T05:50:15.123Z,80.09
2018-12-04T05:52:42.678Z,79.40
2018-12-04T05:55:10.194Z,78.81
2018-12-04T05:57:37.713Z,79.81
2018-12-04T06:00:08.022Z,79.02
2018-12-04T06:02:36.307Z,79.43
2018-12-04T06:05:04.701Z,78.66
2018-12-04T06:07:32.266Z,79.31
2018-12-04T06:09:59.765Z,78.99
2018-12-04T06:12:27.289Z,78.72
2018-12-04T06:14:55.393Z,78.89
2018-12-04T06:17:22.977Z,78.88
2018-12-04T06:19:50.541Z,78.82
2018-12-04T06:22:18.108Z,78.66
2018-12-04T06:24:45.624Z,78.24
2018-12-04T06:27:13.153Z,78.07
2018-12-04T06:29:40.696Z,78.41
2018-12-04T06:32:08.440Z,78.12
2018-12-04T06:34:36.094Z,77.77
2018-12-04T06:37:04.608Z,78.38
2018-12-04T06:39:32.377Z,78.33
2018-12-04T06:41:59.933Z,78.20
2018-12-04T06:44:27.777Z,78.54
2018-12-04T06:46:56.080Z,78.65
2018-12-04T06:49:23.616Z,78.51
2018-12-04T06:51:51.122Z,78.91
2018-12-04T06:54:19.374Z,79.70
2018-12-04T06:56:46.965Z,79.19
2018-12-04T06:59:14.655Z,78.17
2018-12-04T07:01:42.262Z,77.88
2018-12-04T07:04:09.790Z,77.45
2018-12-04T07:06:37.371Z,78.21
2018-12-04T07:09:06.532Z,77.36
2018-12-04T07:11:34.116Z,77.26
2018-12-04T07:14:01.747Z,77.37
2018-12-04T07:16:29.265Z,77.16
2018-12-04T07:18:56.750Z,77.87
2018-12-04T07:21:24.769Z,77.72
2018-12-04T07:23:52.314Z,77.50
2018-12-04T07:26:19.915Z,77.20
2018-12-04T07:28:47.465Z,76.89
2018-12-04T07:31:14.974Z,77.56
2018-12-04T07:33:42.495Z,77.16
2018-12-04T07:36:10.971Z,76.86
2018-12-04T07:38:38.490Z,76.64
2018-12-04T07:41:06.073Z,77.07
2018-12-04T07:43:33.657Z,77.41
2018-12-04T07:46:01.216Z,77.43
2018-12-04T07:48:28.830Z,77.48
2018-12-04T07:50:56.355Z,76.71
2018-12-04T07:53:23.852Z,77.43
2018-12-04T07:55:51.417Z,77.61
2018-12-04T07:58:18.984Z,77.20
2018-12-04T08:00:46.498Z,77.34
2018-12-04T08:03:14.129Z,77.10
2018-12-04T08:05:41.672Z,76.82
2018-12-04T08:08:09.197Z,76.65
2018-12-04T08:10:36.685Z,76.67
2018-12-04T08:13:05.137Z,76.84
2018-12-04T08:15:32.873Z,76.55
2018-12-04T08:18:00.402Z,76.77
2018-12-04T08:20:27.881Z,76.23
2018-12-04T08:22:55.374Z,75.47
2018-12-04T08:25:22.896Z,75.49
2018-12-04T08:27:51.338Z,76.09
2018-12-04T08:30:19.111Z,75.55
2018-12-04T08:32:46.591Z,75.74
2018-12-04T08:35:14.112Z,75.24
2018-12-04T08:37:41.703Z,76.10
2018-12-04T08:40:09.351Z,75.95
2018-12-04T08:42:36.904Z,75.91
2018-12-04T08:45:05.414Z,75.29
2018-12-04T08:47:32.986Z,75.83
2018-12-04T08:50:00.623Z,75.65
2018-12-04T08:52:29.059Z,75.68
2018-12-04T08:54:56.580Z,75.82
2018-12-04T08:57:24.720Z,76.06
2018-12-04T08:59:52.312Z,75.11
2018-12-04T09:02:19.837Z,75.30
2018-12-04T09:04:47.399Z,75.15
2018-12-04T09:07:14.926Z,74.57
2018-12-04T09:09:42.419Z,74.79
2018-12-04T09:12:09.970Z,74.73
2018-12-04T09:14:38.273Z,74.51
2018-12-04T09:17:06.025Z,74.19
2018-12-04T09:19:34.650Z,74.30
2018-12-04T09:22:02.371Z,74.11
2018-12-04T09:24:30.875Z,74.60
2018-12-04T09:26:58.813Z,74.06
2018-12-04T09:29:26.471Z,73.29
2018-12-04T09:31:54.127Z,73.74
2018-12-04T09:34:21.715Z,72.82
2018-12-04T09:36:49.251Z,72.42
2018-12-04T09:39:16.819Z,73.35
2018-12-04T09:41:44.313Z,73.47
2018-12-04T09:44:11.823Z,72.81
2018-12-04T09:46:39.849Z,72.56
2018-12-04T09:49:07.324Z,72.66
2018-12-04T09:51:34.886Z,71.67
2018-12-04T09:54:02.516Z,72.06
2018-12-04T09:56:30.026Z,71.70
2018-12-04T09:58:57.642Z,72.11
2018-12-04T10:01:25.203Z,71.54
2018-12-04T10:03:52.707Z,71.81
2018-12-04T10:06:20.284Z,71.28
2018-12-04T10:08:47.825Z,72.18
2018-12-04T10:11:15.364Z,72.29
2018-12-04T10:13:43.751Z,71.75
2018-12-04T10:16:11.243Z,71.58
2018-12-04T10:18:38.814Z,71.11
2018-12-04T10:21:06.499Z,69.06
2018-12-04T10:23:34.153Z,69.59
2018-12-04T10:26:01.716Z,69.18
2018-12-04T10:28:29.248Z,69.85
2018-12-04T10:31:02.566Z,68.92
2018-12-04T10:33:30.204Z,68.93
2018-12-04T10:35:57.772Z,68.34
2018-12-04T10:38:25.315Z,68.36
2018-12-04T10:40:52.879Z,68.38
2018-12-04T10:43:20.593Z,67.81
2018-12-04T10:45:48.103Z,67.40
2018-12-04T10:48:15.673Z,67.21
2018-12-04T10:50:43.193Z,66.76
2018-12-04T10:53:10.876Z,66.85
2018-12-04T10:55:38.465Z,66.86
2018-12-04T10:58:06.043Z,66.31
2018-12-04T11:00:38.626Z,65.86
2018-12-04T11:03:12.919Z,66.12
2018-12-04T11:05:41.184Z,65.42
2018-12-04T11:08:08.747Z,65.20
2018-12-04T11:10:36.304Z,65.06
2018-12-04T11:13:03.927Z,64.98
2018-12-04T11:15:31.546Z,64.71
2018-12-04T11:17:59.082Z,64.89
2018-12-04T11:20:26.655Z,64.62
2018-12-04T11:22:54.207Z,64.66
2018-12-04T11:25:22.389Z,64.33
2018-12-04T11:27:50.101Z,64.03
2018-12-04T11:30:17.601Z,64.03
2018-12-04T11:32:45.377Z,64.02
2018-12-04T11:35:13.408Z,64.27
2018-12-04T11:37:40.953Z,63.63
2018-12-04T11:40:09.283Z,64.19
2018-12-04T11:42:36.833Z,64.44
2018-12-04T11:45:05.254Z,64.13
2018-12-04T11:47:32.827Z,64.43
2018-12-04T11:50:00.393Z,63.60
2018-12-04T11:52:27.999Z,63.25
2018-12-04T11:54:55.604Z,63.46
2018-12-04T11:57:23.227Z,63.21
2018-12-04T11:59:50.808Z,62.96
2018-12-04T12:02:18.972Z,62.97
2018-12-04T12:04:46.515Z,63.34
2018-12-04T12:07:14.234Z,62.56
2018-12-04T12:09:41.756Z,62.17
2018-12-04T12:12:09.623Z,62.20
2018-12-04T12:14:37.166Z,62.32
2018-12-04T12:17:05.457Z,61.94
2018-12-04T12:19:33.011Z,62.39
2018-12-04T12:22:00.609Z,61.99
2018-12-04T12:24:28.246Z,61.81
2018-12-04T12:26:55.871Z,61.30
2018-12-04T12:29:23.375Z,61.72
2018-12-04T12:31:50.899Z,60.37
2018-12-04T12:34:23.455Z,60.21
2018-12-04T12:36:49.850Z,60.59
2018-12-04T12:39:17.419Z,60.44
2018-12-04T12:41:45.058Z,60.09
2018-12-04T12:44:12.596Z,59.73
2018-12-04T12:46:40.573Z,59.23
2018-12-04T12:49:08.261Z,58.46
2018-12-04T12:51:35.729Z,58.69
2018-12-04T12:54:03.234Z,59.28
2018-12-04T12:56:30.796Z,59.76
2018-12-04T12:58:58.337Z,58.90
2018-12-04T13:01:25.894Z,58.83
2018-12-04T13:03:53.924Z,58.58
2018-12-04T13:06:21.430Z,59.03
2018-12-04T13:08:49.140Z,59.94
2018-12-04T13:11:16.628Z,59.69
2018-12-04T13:13:44.181Z,58.99
2018-12-04T13:16:12.539Z,59.10
2018-12-04T13:18:40.921Z,58.64
2018-12-04T13:21:08.460Z,58.79
2018-12-04T13:23:36.030Z,58.61
2018-12-04T13:26:03.805Z,58.81
2018-12-04T13:28:31.366Z,59.00
2018-12-04T13:31:00.648Z,59.36
2018-12-04T13:33:28.422Z,59.84
2018-12-04T13:35:55.928Z,59.96
2018-12-04T13:38:23.593Z,59.56
2018-12-04T13:40:51.240Z,61.06
2018-12-04T13:43:18.829Z,60.28
2018-12-04T13:45:46.626Z,60.77
2018-12-04T13:48:14.160Z,60.68
2018-12-04T13:50:42.520Z,60.63
2018-12-04T13:53:10.314Z,60.80
2018-12-04T13:55:37.867Z,60.79
2018-12-04T13:58:05.409Z,60.96
2018-12-04T14:00:32.955Z,60.51
2018-12-04T14:03:00.701Z,60.74
2018-12-04T14:05:29.767Z,60.59
2018-12-04T14:07:57.322Z,60.71
2018-12-04T14:10:24.875Z,60.39
2018-12-04T14:12:52.410Z,61.01
2018-12-04T14:15:20.557Z,60.49
2018-12-04T14:17:48.518Z,60.83
2018-12-04T14:20:16.016Z,60.84
2018-12-04T14:22:43.883Z,60.91
2018-12-04T14:25:11.915Z,60.58
2018-12-04T14:27:39.479Z,60.45
2018-12-04T14:30:10.334Z,60.49
2018-12-04T14:32:37.971Z,60.36
2018-12-04T14:35:06.448Z,60.46
2018-12-04T14:37:36.239Z,60.36
2018-12-04T14:40:04.380Z,61.23
2018-12-04T14:42:32.027Z,61.89
2018-12-04T14:45:00.711Z,61.88
2018-12-04T14:47:28.828Z,61.74
2018-12-04T14:49:56.379Z,61.12
2018-12-04T14:52:24.652Z,61.29
2018-12-04T14:54:52.186Z,61.48
2018-12-04T14:57:19.877Z,62.06
2018-12-04T14:59:47.630Z,62.16
2018-12-04T15:02:15.188Z,62.85
2018-12-04T15:04:42.867Z,61.65
2018-12-04T15:07:10.482Z,61.66
2018-12-04T15:09:39.122Z,62.17
2018-12-04T15:12:06.831Z,62.68
2018-12-04T15:14:34.371Z,62.07
2018-12-04T15:17:01.968Z,62.32
2018-12-04T15:19:29.645Z,62.11
2018-12-04T15:21:57.257Z,62.26
2018-12-04T15:24:24.787Z,63.13
2018-12-04T15:26:52.391Z,63.41
2018-12-04T15:29:20.641Z,62.99
2018-12-04T15:31:48.167Z,63.37
2018-12-04T15:34:15.761Z,63.51
2018-12-04T15:36:43.397Z,63.68
2018-12-04T15:39:10.983Z,63.95
2018-12-04T15:41:38.743Z,63.69
2018-12-04T15:44:07.250Z,63.97
2018-12-04T15:46:34.959Z,64.23
2018-12-04T15:49:02.895Z,64.25
2018-12-04T15:51:31.517Z,64.30
2018-12-04T15:53:59.132Z,63.96
2018-12-04T15:56:26.707Z,64.11
2018-12-04T15:58:54.260Z,64.39
2018-12-04T16:01:21.844Z,65.16
2018-12-04T16:03:49.710Z,66.34
2018-12-04T16:06:17.362Z,65.70
2018-12-04T16:08:45.244Z,66.98
2018-12-04T16:11:13.225Z,66.94
2018-12-04T16:13:40.777Z,66.61
2018-12-04T16:16:08.332Z,66.83
2018-12-04T16:18:35.831Z,66.35
2018-12-04T16:21:04.257Z,66.61
2018-12-04T16:23:31.887Z,66.88
2018-12-04T16:25:59.650Z,66.51
2018-12-04T16:28:27.350Z,66.39
2018-12-04T16:30:54.897Z,66.74
2018-12-04T16:33:24.094Z,66.43
2018-12-04T16:35:51.768Z,66.38
2018-12-04T16:38:19.283Z,66.50
2018-12-04T16:40:46.833Z,66.77
2018-12-04T16:43:14.793Z,66.64
2018-12-04T16:45:42.365Z,66.69
2018-12-04T16:48:10.085Z,66.96
2018-12-04T16:50:37.696Z,67.00
2018-12-04T16:53:05.322Z,67.09
2018-12-04T16:55:33.853Z,67.00
2018-12-04T16:58:01.596Z,66.92
2018-12-04T17:00:29.201Z,66.64
2018-12-04T17:02:56.913Z,66.41
2018-12-04T17:05:24.634Z,66.76
2018-12-04T17:07:52.234Z,66.74
2018-12-04T17:10:22.606Z,67.07
2018-12-04T17:12:50.464Z,66.43
2018-12-04T17:15:19.630Z,66.48
2018-12-04T17:17:47.233Z,66.70
2018-12-04T17:20:14.885Z,66.12
2018-12-04T17:22:42.631Z,65.61
2018-12-04T17:25:10.150Z,66.08
2018-12-04T17:27:38.758Z,65.41
2018-12-04T17:30:08.460Z,64.99
2018-12-04T17:32:36.636Z,65.07
2018-12-04T17:35:04.855Z,65.03
2018-12-04T17:37:32.557Z,65.43
2018-12-04T17:40:00.221Z,65.58
2018-12-04T17:42:27.816Z,65.02
2018-12-04T17:44:55.324Z,67.28
2018-12-04T17:47:23.062Z,65.37
2018-12-04T17:49:50.718Z,65.42
2018-12-04T17:52:18.385Z,65.12
2018-12-04T17:54:47.541Z,65.19
2018-12-04T17:57:15.061Z,65.61
2018-12-04T17:59:42.756Z,65.87
2018-12-04T18:02:10.357Z,65.91
2018-12-04T18:04:38.901Z,66.70
2018-12-04T18:07:06.426Z,66.07
2018-12-04T18:09:33.999Z,65.98
2018-12-04T18:12:01.782Z,64.93
2018-12-04T18:14:30.083Z,65.43
2018-12-04T18:16:57.704Z,65.25
2018-12-04T18:19:25.253Z,64.92
2018-12-04T18:21:53.429Z,64.70
2018-12-04T18:24:20.913Z,65.12
2018-12-04T18:26:48.451Z,65.15
2018-12-04T18:29:15.974Z,65.19
2018-12-04T18:31:44.360Z,65.44
2018-12-04T18:34:12.560Z,65.08
2018-12-04T18:36:40.164Z,64.91
2018-12-04T18:39:08.501Z,64.88
2018-12-04T18:41:36.786Z,64.79
2018-12-04T18:44:05.953Z,65.70
2018-12-04T18:46:33.526Z,65.59
2018-12-04T18:49:01.047Z,65.60
2018-12-04T18:51:29.083Z,65.52
2018-12-04T18:53:56.601Z,65.66
2018-12-04T18:56:24.144Z,65.92
2018-12-04T18:58:52.291Z,65.57
2018-12-04T19:01:19.933Z,66.54
2018-12-04T19:03:47.488Z,66.50
2018-12-04T19:06:15.031Z,65.95
2018-12-04T19:08:49.083Z,66.76
2018-12-04T19:11:16.645Z,66.43
2018-12-04T19:13:45.065Z,65.88
2018-12-04T19:16:16.380Z,66.01
2018-12-04T19:21:11.508Z,66.41
2018-12-04T19:23:40.811Z,66.26
2018-12-04T19:26:09.177Z,66.26
2018-12-04T19:28:37.136Z,66.42
2018-12-04T19:31:04.814Z,66.30
2018-12-04T19:33:33.393Z,66.49
2018-12-04T19:36:01.862Z,66.44
2018-12-04T19:38:29.408Z,66.46
2018-12-04T19:40:57.022Z,66.10
2018-12-04T19:43:25.902Z,66.23
2018-12-04T19:45:54.015Z,65.78
2018-12-04T19:48:21.635Z,66.22
2018-12-04T19:50:49.153Z,65.93
2018-12-04T19:53:16.742Z,66.85
2018-12-04T19:55:45.514Z,66.94
2018-12-04T19:58:13.054Z,67.37
2018-12-04T20:00:40.695Z,67.47
2018-12-04T20:03:08.322Z,67.33
2018-12-04T20:05:36.402Z,67.07
2018-12-04T20:08:06.784Z,67.51
2018-12-04T20:10:35.196Z,67.34
2018-12-04T20:13:03.890Z,67.26
2018-12-04T20:15:31.612Z,67.67
2018-12-04T20:18:00.227Z,66.90
2018-12-04T20:20:27.810Z,67.09
2018-12-04T20:22:55.379Z,67.18
2018-12-04T20:25:24.185Z,67.13
2018-12-04T20:27:51.884Z,67.03
2018-12-04T20:30:20.803Z,67.51
2018-12-04T20:32:48.380Z,67.22
2018-12-04T20:35:16.123Z,67.26
2018-12-04T20:37:43.770Z,67.98
2018-12-04T20:40:12.301Z,67.48
2018-12-04T20:42:40.051Z,67.14
2018-12-04T20:45:07.840Z,67.35
2018-12-04T20:47:36.904Z,67.24
2018-12-04T20:50:05.492Z,67.65
2018-12-04T20:52:33.196Z,67.86
2018-12-04T20:55:08.520Z,67.97
2018-12-04T20:57:31.414Z,68.08
2018-12-04T20:59:59.094Z,67.90
2018-12-04T21:02:26.678Z,68.37
2018-12-04T21:04:55.034Z,68.13
2018-12-04T21:07:23.248Z,68.59
2018-12-04T21:09:50.819Z,68.37
2018-12-04T21:12:18.413Z,68.54
2018-12-04T21:14:45.979Z,68.14
2018-12-04T21:17:14.390Z,68.26
2018-12-04T21:19:43.049Z,68.56
2018-12-04T21:22:11.385Z,67.88
2018-12-04T21:24:39.731Z,68.51
2018-12-04T21:27:11.818Z,68.59
2018-12-04T21:29:46.625Z,68.59
2018-12-04T21:32:21.008Z,68.89
2018-12-04T21:34:54.215Z,68.57
2018-12-04T21:40:37.780Z,69.11
2018-12-04T21:43:10.897Z,69.40
2018-12-04T21:45:43.929Z,69.49
2018-12-04T21:48:13.377Z,69.54
2018-12-04T21:50:40.960Z,69.31
2018-12-04T21:53:08.794Z,69.05
2018-12-04T21:55:36.422Z,68.91
2018-12-04T21:58:04.077Z,69.08
2018-12-04T22:00:33.056Z,68.79
2018-12-04T22:03:01.272Z,69.44
2018-12-04T22:05:29.720Z,69.59
2018-12-04T22:08:00.941Z,69.53
2018-12-04T22:10:28.533Z,69.89
2018-12-04T22:12:56.028Z,70.16
2018-12-04T22:15:23.513Z,69.53
2018-12-04T22:17:51.099Z,69.94
2018-12-04T22:20:18.650Z,70.18
2018-12-04T22:22:46.765Z,69.22
2018-12-04T22:25:15.254Z,69.96
2018-12-04T22:27:42.832Z,70.26
2018-12-04T22:30:10.361Z,70.15
2018-12-04T22:32:39.784Z,69.48
2018-12-04T22:35:07.505Z,70.32
2018-12-04T22:37:36.009Z,70.51
2018-12-04T22:40:05.000Z,70.46
2018-12-04T22:42:32.809Z,70.40
2018-12-04T22:45:02.402Z,71.52
2018-12-04T22:47:31.351Z,71.36
2018-12-04T22:49:59.091Z,71.73
2018-12-04T22:52:26.716Z,71.72
2018-12-04T22:54:54.457Z,71.47
2018-12-04T22:57:22.088Z,70.91
2018-12-04T22:59:50.082Z,71.08
2018-12-04T23:02:18.464Z,71.33
2018-12-04T23:04:46.174Z,71.62
2018-12-04T23:09:57.494Z,72.03
2018-12-04T23:12:25.064Z,72.16
2018-12-04T23:14:52.602Z,72.23
2018-12-04T23:17:20.124Z,72.63
2018-12-04T23:19:47.807Z,71.40
2018-12-04T23:22:15.323Z,71.68
2018-12-04T23:24:42.879Z,72.20
2018-12-04T23:27:10.565Z,71.34
2018-12-04T23:29:38.873Z,71.92
2018-12-04T23:32:06.493Z,71.80
2018-12-04T23:34:34.096Z,72.45
2018-12-04T23:37:03.421Z,72.48
2018-12-04T23:39:31.780Z,72.65
2018-12-04T23:41:59.290Z,73.08
2018-12-04T23:44:26.823Z,72.91
2018-12-04T23:46:54.385Z,72.14
2018-12-04T23:49:21.950Z,72.89
2018-12-04T23:51:49.606Z,72.51
2018-12-04T23:54:17.144Z,72.68
2018-12-04T23:56:45.534Z,72.06
2018-12-04T23:59:13.106Z,72.93
